Time;durP1;ratioP1;P1;durP2;ratioP2;P2;SDS_P1;SDS_P2;PMS_P1;PMS_P2;Temp;Humidity;BMP_temperature;BMP_pressure;BME280_temperature;BME280_humidity;BME280_pressure;Samples;Min_cycle;Max_cycle;Signal;HPM_P1;HPM_P2
2023/07/22 00:01:16;;;;;;;6.97;6.27;;;;;;;12.11;100.00;95935.44;7424650;19;20389;-90
2023/07/22 00:14:09;;;;;;;6.17;5.53;;;;;;;12.79;100.00;96031.59;7394778;19;20378;-91
2023/07/22 00:16:36;;;;;;;6.50;5.90;;;;;;;12.22;100.00;95953.47;7393959;19;20369;-90
2023/07/22 00:19:07;;;;;;;6.57;5.97;;;;;;;12.13;100.00;95908.59;7393928;19;20426;-91
2023/07/22 00:21:34;;;;;;;6.70;6.03;;;;;;;12.22;100.00;95921.66;7395223;19;20368;-90
2023/07/22 00:24:01;;;;;;;8.57;7.70;;;;;;;11.93;100.00;95885.84;7399077;19;20735;-90
2023/07/22 00:26:29;;;;;;;8.27;7.57;;;;;;;11.27;100.00;95783.34;7394797;19;20873;-90
2023/07/22 00:29:00;;;;;;;8.20;7.40;;;;;;;11.06;100.00;95749.97;7394058;19;22354;-90
2023/07/22 00:31:36;;;;;;;8.20;7.50;;;;;;;11.95;100.00;95913.53;7412119;19;20405;-90
2023/07/22 00:34:03;;;;;;;10.87;7.93;;;;;;;10.92;100.00;95798.00;7406409;19;20408;-90
2023/07/22 00:36:37;;;;;;;8.50;7.63;;;;;;;11.61;100.00;95888.50;7414832;19;20408;-89
2023/07/22 00:39:07;;;;;;;7.93;7.13;;;;;;;11.70;100.00;95896.25;7397046;19;20745;-90
2023/07/22 00:41:35;;;;;;;8.17;6.73;;;;;;;11.92;100.00;95921.41;7403328;19;20399;-90
2023/07/22 00:44:05;;;;;;;8.37;7.53;;;;;;;11.09;100.00;95851.72;7408407;19;20427;-90
2023/07/22 00:46:35;;;;;;;9.07;8.23;;;;;;;9.77;100.00;95703.69;7420983;19;20372;-90
2023/07/22 00:49:07;;;;;;;10.10;8.33;;;;;;;11.94;100.00;95996.00;7423330;19;20412;-90
2023/07/22 00:51:38;;;;;;;7.60;6.80;;;;;;;10.99;100.00;95874.16;7424860;19;20385;-90
2023/07/22 00:54:05;;;;;;;9.77;8.23;;;;;;;12.12;100.00;95991.88;7411967;19;20384;-90
2023/07/22 00:56:40;;;;;;;12.47;8.27;;;;;;;10.47;100.00;95721.75;7403080;19;20408;-90
2023/07/22 00:59:09;;;;;;;10.50;9.03;;;;;;;10.29;100.00;95702.81;7400894;19;20401;-89
2023/07/22 01:01:37;;;;;;;8.20;7.37;;;;;;;10.57;100.00;95718.63;7398145;19;20404;-90
2023/07/22 01:04:04;;;;;;;15.00;8.10;;;;;;;11.54;100.00;95840.69;7399260;19;20384;-90
2023/07/22 01:06:33;;;;;;;12.47;8.20;;;;;;;10.83;100.00;95714.69;7398187;19;20388;-90
2023/07/22 01:09:00;;;;;;;9.73;8.73;;;;;;;11.92;100.00;95863.13;7399418;19;20412;-90
2023/07/22 01:11:27;;;;;;;9.63;6.70;;;;;;;11.50;100.00;95800.91;7395556;19;20404;-90
2023/07/22 01:13:57;;;;;;;8.23;7.37;;;;;;;12.09;100.00;95971.38;7399464;19;20904;-90
2023/07/22 01:16:26;;;;;;;8.80;8.10;;;;;;;11.40;100.00;95870.25;7399145;19;20557;-90
2023/07/22 01:18:57;;;;;;;8.27;7.50;;;;;;;10.46;100.00;95719.44;7399434;19;20385;-90
2023/07/22 01:21:25;;;;;;;10.80;7.67;;;;;;;10.86;100.00;95751.78;7397401;19;20399;-90
2023/07/22 01:23:52;;;;;;;8.20;7.40;;;;;;;12.04;100.00;95943.25;7400338;19;20387;-90
2023/07/22 01:26:20;;;;;;;10.93;8.37;;;;;;;11.16;100.00;95783.84;7397620;19;20399;-90
2023/07/22 01:28:47;;;;;;;9.63;7.73;;;;;;;11.95;100.00;95883.63;7401131;19;20384;-90
2023/07/22 01:31:14;;;;;;;8.37;7.67;;;;;;;12.25;100.00;95905.84;7399865;19;20432;-90
2023/07/22 01:33:53;;;;;;;8.97;7.10;;;;;;;12.55;100.00;95948.50;7402201;19;20379;-90
2023/07/22 01:36:28;;;;;;;9.37;6.90;;;;;;;13.00;100.00;95986.94;7405553;19;20384;-88
2023/07/22 01:38:55;;;;;;;9.27;7.33;;;;;;;11.71;100.00;95821.00;7398775;19;20945;-88
2023/07/22 01:41:25;;;;;;;8.10;7.40;;;;;;;12.32;100.00;95899.94;7400626;19;20403;-89
2023/07/22 01:43:53;;;;;;;6.60;5.97;;;;;;;11.74;100.00;95833.53;7398868;19;20464;-89
2023/07/22 01:46:24;;;;;;;11.60;7.33;;;;;;;12.34;100.00;95913.59;7399542;19;20448;-89
2023/07/22 01:48:58;;;;;;;6.47;5.87;;;;;;;11.24;100.00;95763.63;7397791;19;20403;-88
2023/07/22 01:51:32;;;;;;;6.70;6.00;;;;;;;12.67;100.00;95980.19;7398491;19;20403;-89
2023/07/22 01:54:00;;;;;;;8.60;6.00;;;;;;;10.55;100.00;95657.41;7398026;19;20398;-88
2023/07/22 01:56:28;;;;;;;8.80;6.30;;;;;;;11.50;100.00;95792.19;7396285;19;20464;-88
2023/07/22 01:58:57;;;;;;;6.23;5.70;;;;;;;11.39;100.00;95764.72;7397088;19;20419;-88
2023/07/22 02:01:26;;;;;;;6.43;5.83;;;;;;;12.94;100.00;96006.88;7399295;19;20380;-88
2023/07/22 02:04:01;;;;;;;7.97;5.97;;;;;;;11.33;100.00;95838.28;7397705;19;20393;-88
2023/07/22 02:06:30;;;;;;;7.50;6.80;;;;;;;12.22;100.00;95974.69;7401874;19;20373;-88
2023/07/22 02:09:13;;;;;;;6.60;6.10;;;;;;;10.79;100.00;95743.66;7429606;19;20443;-88
2023/07/22 02:11:41;;;;;;;7.03;6.43;;;;;;;11.25;100.00;95791.63;7416452;19;20388;-88
2023/07/22 02:14:10;;;;;;;7.03;6.30;;;;;;;11.35;100.00;95822.06;7397733;19;20389;-88
2023/07/22 02:16:37;;;;;;;6.20;5.60;;;;;;;11.75;100.00;95886.19;7398264;19;20397;-89
2023/07/22 02:19:05;;;;;;;7.23;6.53;;;;;;;11.90;100.00;96013.69;7400902;19;20435;-89
2023/07/22 02:21:39;;;;;;;8.90;6.27;;;;;;;11.91;100.00;96017.88;7399549;19;20390;-89
2023/07/22 02:24:07;;;;;;;7.90;6.40;;;;;;;12.13;100.00;96043.75;7406280;19;20396;-89
2023/07/22 02:26:35;;;;;;;9.37;6.30;;;;;;;12.32;100.00;96040.44;7407780;19;20407;-89
2023/07/22 02:29:02;;;;;;;6.53;5.93;;;;;;;11.26;100.00;95877.84;7409523;19;20419;-89
2023/07/22 02:31:30;;;;;;;7.97;6.17;;;;;;;12.13;100.00;95985.47;7412479;19;20394;-89
2023/07/22 02:33:57;;;;;;;7.67;5.70;;;;;;;10.71;100.00;95791.44;7420115;19;20387;-88
2023/07/22 02:36:24;;;;;;;6.37;5.77;;;;;;;11.50;100.00;95933.25;7430761;19;20392;-88
2023/07/22 02:38:51;;;;;;;8.37;6.37;;;;;;;10.52;100.00;95794.72;7427116;19;20403;-89
2023/07/22 02:41:18;;;;;;;8.10;6.30;;;;;;;12.09;100.00;96024.38;7409712;19;20737;-89
2023/07/22 02:43:45;;;;;;;5.80;5.30;;;;;;;12.01;100.00;95975.72;7401305;19;20419;-89
2023/07/22 02:46:12;;;;;;;6.57;5.97;;;;;;;11.32;100.00;95873.81;7403847;19;20385;-89
2023/07/22 02:48:40;;;;;;;7.03;6.37;;;;;;;12.33;100.00;96018.88;7402987;19;20401;-89
2023/07/22 02:51:09;;;;;;;6.87;6.00;;;;;;;12.55;100.00;96029.94;7405131;19;20404;-88
2023/07/22 02:53:38;;;;;;;6.90;6.30;;;;;;;12.96;100.00;96069.13;7402434;19;20932;-89
2023/07/22 02:56:11;;;;;;;9.93;6.43;;;;;;;12.32;100.00;95968.84;7403056;19;20413;-89
2023/07/22 02:58:38;;;;;;;6.80;6.20;;;;;;;11.98;100.00;95941.97;7402299;19;20855;-88
2023/07/22 03:01:05;;;;;;;7.67;6.93;;;;;;;12.40;100.00;95975.84;7400855;19;20968;-89
2023/07/22 03:03:33;;;;;;;10.97;8.73;;;;;;;12.10;100.00;95919.91;7400898;19;20439;-88
2023/07/22 03:06:00;;;;;;;8.83;8.03;;;;;;;12.73;100.00;95999.28;7402854;19;20395;-88
2023/07/22 03:08:28;;;;;;;8.30;7.60;;;;;;;11.18;100.00;95783.50;7401295;19;20404;-89
2023/07/22 03:10:55;;;;;;;13.80;7.60;;;;;;;12.61;100.00;95999.41;7400465;19;20435;-88
2023/07/22 03:13:22;;;;;;;8.17;7.47;;;;;;;12.78;100.00;96017.56;7402188;19;20388;-89
2023/07/22 03:15:49;;;;;;;7.77;6.97;;;;;;;12.39;100.00;95990.97;7402995;19;21016;-88
2023/07/22 03:18:16;;;;;;;7.50;6.93;;;;;;;12.95;100.00;96094.13;7404385;19;20393;-89
2023/07/22 03:20:43;;;;;;;8.70;7.77;;;;;;;12.19;100.00;95970.06;7404376;19;20745;-89
2023/07/22 03:23:10;;;;;;;7.53;6.80;;;;;;;12.20;100.00;95972.38;7403880;19;20394;-88
2023/07/22 03:25:37;;;;;;;8.33;7.43;;;;;;;11.91;100.00;95902.09;7405117;19;20474;-88
2023/07/22 03:28:06;;;;;;;7.47;6.73;;;;;;;12.01;100.00;95895.47;7402547;19;20394;-89
2023/07/22 03:30:33;;;;;;;8.70;7.63;;;;;;;11.92;100.00;95895.66;7402043;19;20420;-88
2023/07/22 03:33:00;;;;;;;9.57;8.57;;;;;;;12.40;100.00;95986.44;7400195;19;20405;-88
2023/07/22 03:35:28;;;;;;;8.07;7.43;;;;;;;13.03;100.00;96089.72;7401494;19;20949;-88
2023/07/22 03:37:55;;;;;;;9.10;8.20;;;;;;;12.90;100.00;96070.50;7401600;19;20384;-88
2023/07/22 03:40:30;;;;;;;8.60;7.80;;;;;;;12.91;100.00;96095.94;7401539;19;20479;-88
2023/07/22 03:42:58;;;;;;;11.30;6.93;;;;;;;12.29;100.00;96043.78;7402322;19;20363;-88
2023/07/22 03:45:25;;;;;;;9.87;7.30;;;;;;;11.75;100.00;95981.53;7414399;19;20424;-88
2023/07/22 03:47:57;;;;;;;10.93;7.60;;;;;;;11.98;100.00;95994.19;7416270;19;20472;-88
2023/07/22 03:50:25;;;;;;;7.30;6.67;;;;;;;11.41;100.00;95884.25;7398565;19;20412;-88
2023/07/22 03:52:52;;;;;;;8.70;7.80;;;;;;;11.28;100.00;95893.38;7400090;19;20408;-88
2023/07/22 03:55:19;;;;;;;7.40;6.70;;;;;;;11.53;100.00;95931.81;7399727;19;20397;-88
2023/07/22 03:57:46;;;;;;;9.80;8.87;;;;;;;11.62;100.00;95934.28;7401146;19;20404;-88
2023/07/22 04:00:14;;;;;;;8.33;7.53;;;;;;;11.86;100.00;95959.84;7398094;19;20420;-89
2023/07/22 04:02:41;;;;;;;7.97;6.97;;;;;;;12.69;100.00;96070.84;7401066;19;20421;-89
2023/07/22 04:05:09;;;;;;;7.80;7.20;;;;;;;12.68;100.00;96065.84;7399368;19;20391;-88
2023/07/22 04:07:37;;;;;;;7.47;6.87;;;;;;;12.67;100.00;96080.22;7402364;19;20395;-89
2023/07/22 04:10:04;;;;;;;7.83;7.13;;;;;;;12.09;100.00;96014.53;7398561;19;20998;-88
2023/07/22 04:12:31;;;;;;;7.27;6.67;;;;;;;11.69;100.00;95959.06;7402192;19;20403;-89
2023/07/22 04:15:05;;;;;;;8.50;7.70;;;;;;;11.77;100.00;95960.78;7401384;19;20392;-89
2023/07/22 04:17:57;;;;;;;8.70;7.60;;;;;;;11.84;100.00;95966.25;7401364;19;20387;-90
2023/07/22 04:20:28;;;;;;;9.70;7.47;;;;;;;11.26;100.00;95877.84;7399158;19;20405;-90
2023/07/22 04:22:55;;;;;;;9.03;8.13;;;;;;;12.93;100.00;96083.06;7399828;19;20456;-90
2023/07/22 04:25:23;;;;;;;8.93;8.10;;;;;;;13.04;100.00;96070.03;7399913;19;20410;-90
2023/07/22 04:27:51;;;;;;;9.10;8.20;;;;;;;12.50;100.00;95987.78;7399026;19;20380;-90
2023/07/22 04:30:24;;;;;;;9.70;8.70;;;;;;;11.47;100.00;95877.56;7399423;19;20968;-90
2023/07/22 04:32:53;;;;;;;9.20;8.50;;;;;;;11.71;100.00;95911.03;7397646;19;20385;-91
2023/07/22 04:35:21;;;;;;;10.70;9.17;;;;;;;11.34;100.00;95868.94;7398402;19;20412;-90
2023/07/22 04:37:51;;;;;;;10.27;8.30;;;;;;;11.43;100.00;95897.91;7399251;19;20407;-90
2023/07/22 04:40:19;;;;;;;9.57;8.77;;;;;;;12.61;100.00;96076.31;7398824;19;20943;-90
2023/07/22 04:42:46;;;;;;;9.27;7.90;;;;;;;11.45;100.00;95912.31;7399116;19;20419;-90
2023/07/22 04:45:13;;;;;;;9.30;8.50;;;;;;;11.74;100.00;95958.03;7398774;19;20392;-90
2023/07/22 04:47:41;;;;;;;12.13;11.03;;;;;;;11.25;100.00;95871.00;7397163;19;20428;-90
2023/07/22 04:50:09;;;;;;;8.67;7.90;;;;;;;12.01;100.00;95996.16;7398424;19;20419;-89
2023/07/22 04:52:36;;;;;;;9.50;8.50;;;;;;;12.05;100.00;95994.38;7398795;19;20735;-90
2023/07/22 04:55:08;;;;;;;8.70;7.80;;;;;;;11.17;100.00;95842.81;7396897;19;20396;-90
2023/07/22 04:57:36;;;;;;;11.93;7.57;;;;;;;12.75;100.00;96076.63;7399013;19;20740;-90
2023/07/22 05:00:04;;;;;;;9.67;8.77;;;;;;;11.98;100.00;95984.38;7399441;19;20429;-90
2023/07/22 05:02:32;;;;;;;9.60;8.70;;;;;;;12.52;100.00;96079.13;7410217;19;20385;-90
2023/07/22 05:04:59;;;;;;;8.67;7.90;;;;;;;12.35;100.00;96061.72;7418784;19;20388;-91
2023/07/22 05:07:26;;;;;;;8.77;7.93;;;;;;;13.01;100.00;96150.34;7412361;19;20391;-90
2023/07/22 05:09:56;;;;;;;8.80;7.90;;;;;;;12.26;100.00;96009.97;7410537;19;20429;-90
2023/07/22 05:12:23;;;;;;;10.50;8.50;;;;;;;11.07;100.00;95819.53;7396423;19;20381;-90
2023/07/22 05:14:51;;;;;;;11.30;8.30;;;;;;;12.41;100.00;96025.09;7400844;19;20405;-91
2023/07/22 05:17:18;;;;;;;8.30;7.53;;;;;;;12.02;100.00;95974.63;7401188;19;20409;-91
2023/07/22 05:19:45;;;;;;;9.37;8.57;;;;;;;12.41;100.00;96031.16;7410797;19;20425;-91
2023/07/22 05:22:12;;;;;;;8.97;8.23;;;;;;;11.76;100.00;95931.97;7432315;19;20384;-90
2023/07/22 05:24:39;;;;;;;8.67;7.83;;;;;;;12.16;100.00;95986.66;7416243;19;20410;-90
2023/07/22 05:27:06;;;;;;;11.67;9.40;;;;;;;12.50;100.00;96038.94;7395687;19;20373;-90
2023/07/22 05:29:36;;;;;;;8.00;7.20;;;;;;;13.03;100.00;96121.59;7396202;19;20420;-91
2023/07/22 05:32:03;;;;;;;8.43;7.63;;;;;;;12.85;100.00;96084.06;7399242;19;20418;-91
2023/07/22 05:34:35;;;;;;;8.90;8.00;;;;;;;12.52;100.00;96041.25;7398393;19;20408;-90
2023/07/22 05:37:05;;;;;;;7.67;6.97;;;;;;;12.07;100.00;95969.06;7397569;19;20384;-91
2023/07/22 05:39:32;;;;;;;8.73;7.93;;;;;;;13.10;100.00;96131.59;7398864;19;20935;-91
2023/07/22 05:41:59;;;;;;;8.03;7.23;;;;;;;12.53;100.00;96040.91;7395072;19;20392;-90
2023/07/22 05:44:26;;;;;;;8.57;7.63;;;;;;;12.48;100.00;96035.88;7393956;19;20376;-90
2023/07/22 05:46:53;;;;;;;13.77;7.23;;;;;;;13.20;100.00;96165.56;7395259;19;20389;-90
2023/07/22 05:49:20;;;;;;;8.93;7.70;;;;;;;13.29;100.00;96174.13;7395539;19;20415;-90
2023/07/22 05:51:48;;;;;;;9.23;7.57;;;;;;;12.92;100.00;96123.22;7395534;19;20388;-90
2023/07/22 05:54:15;;;;;;;7.90;7.30;;;;;;;12.87;100.00;96083.72;7400016;19;20836;-90
2023/07/22 05:56:42;;;;;;;9.87;8.80;;;;;;;12.94;100.00;96058.06;7397894;19;20383;-91
2023/07/22 05:59:09;;;;;;;11.20;8.63;;;;;;;13.12;100.00;96069.06;7402840;19;20740;-90
2023/07/22 06:01:38;;;;;;;8.67;7.87;;;;;;;13.49;100.00;96140.41;7406064;19;20447;-91
2023/07/22 06:04:08;;;;;;;9.40;8.50;;;;;;;12.60;100.00;96006.59;7407248;19;20400;-91
2023/07/22 06:06:36;;;;;;;8.80;7.17;;;;;;;13.81;100.00;96194.16;7407221;19;20380;-91
2023/07/22 06:09:09;;;;;;;9.50;8.60;;;;;;;12.26;100.00;95941.06;7413364;19;20402;-91
2023/07/22 06:11:41;;;;;;;9.10;8.20;;;;;;;13.10;100.00;96022.78;7405977;19;20400;-91
2023/07/22 06:14:44;;;;;;;9.37;8.20;;;;;;;14.37;100.00;96193.69;7411336;19;20387;-91
2023/07/22 06:17:12;;;;;;;10.63;9.53;;;;;;;13.56;100.00;96045.66;7406387;19;20373;-91
2023/07/22 06:19:45;;;;;;;12.10;10.53;;;;;;;13.67;100.00;96055.72;7400812;19;20419;-91
2023/07/22 06:22:12;;;;;;;10.23;9.33;;;;;;;13.13;100.00;96022.06;7407351;19;20412;-91
2023/07/22 06:24:40;;;;;;;11.47;10.37;;;;;;;13.15;100.00;95967.50;7404582;19;20368;-91
2023/07/22 06:27:07;;;;;;;10.47;9.47;;;;;;;13.10;100.00;95967.78;7406736;19;20391;-91
2023/07/22 06:29:34;;;;;;;9.83;8.77;;;;;;;13.97;100.00;96059.28;7401987;19;20409;-91
2023/07/22 06:32:01;;;;;;;12.20;9.93;;;;;;;13.69;100.00;96009.09;7401927;19;20388;-91
2023/07/22 06:34:29;;;;;;;10.17;9.17;;;;;;;14.38;100.00;96089.59;7402505;19;20458;-91
2023/07/22 06:36:56;;;;;;;10.00;8.60;;;;;;;14.42;100.00;96053.19;7403978;19;20380;-92
2023/07/22 06:39:24;;;;;;;7.90;6.90;;;;;;;15.10;100.00;96066.69;7401001;19;20398;-91
2023/07/22 06:41:54;;;;;;;12.00;8.10;;;;;;;15.96;100.00;96224.63;7407025;19;20405;-91
2023/07/22 06:44:22;;;;;;;8.13;7.40;;;;;;;14.34;100.00;95939.84;7405642;19;20444;-91
2023/07/22 06:46:49;;;;;;;10.00;7.80;;;;;;;15.06;100.00;96056.75;7404037;19;20425;-92
2023/07/22 06:49:19;;;;;;;7.83;7.13;;;;;;;14.47;100.00;95937.75;7401351;19;20416;-91
2023/07/22 06:51:47;;;;;;;6.90;6.30;;;;;;;15.23;100.00;96068.78;7402544;19;20378;-91
2023/07/22 06:54:15;;;;;;;8.90;7.63;;;;;;;15.59;100.00;96235.19;7398787;19;20380;-92
2023/07/22 06:56:45;;;;;;;7.83;6.97;;;;;;;14.04;100.00;96003.59;7401983;19;20399;-92
2023/07/22 06:59:13;;;;;;;8.30;7.50;;;;;;;14.72;100.00;96106.50;7401452;19;20760;-92
2023/07/22 07:01:40;;;;;;;8.90;7.63;;;;;;;15.31;100.00;96246.19;7421180;19;20387;-92
2023/07/22 07:04:08;;;;;;;9.60;8.47;;;;;;;12.98;100.00;95939.50;7407870;19;20402;-91
2023/07/22 07:06:38;;;;;;;9.07;8.27;;;;;;;13.01;100.00;95951.31;7401380;19;20383;-90
2023/07/22 07:09:05;;;;;;;8.37;7.60;;;;;;;13.68;100.00;96057.25;7397784;19;20409;-90
2023/07/22 07:11:32;;;;;;;8.30;6.33;;;;;;;13.57;100.00;96046.44;7399772;19;20412;-90
2023/07/22 07:13:59;;;;;;;8.83;8.00;;;;;;;12.76;100.00;95939.44;7397187;19;20738;-90
2023/07/22 07:16:29;;;;;;;8.97;8.10;;;;;;;14.33;100.00;96198.19;7400161;19;20444;-90
2023/07/22 07:18:57;;;;;;;10.60;6.60;;;;;;;12.53;100.00;95939.34;7398169;19;20353;-90
2023/07/22 07:21:25;;;;;;;10.40;7.13;;;;;;;12.81;100.00;95981.59;7399264;19;20399;-90
2023/07/22 07:23:53;;;;;;;8.40;7.50;;;;;;;12.50;100.00;95958.63;7399919;19;20389;-90
2023/07/22 07:26:21;;;;;;;8.10;7.37;;;;;;;12.50;100.00;95956.72;7398780;19;20408;-90
2023/07/22 07:28:50;;;;;;;7.50;6.90;;;;;;;12.87;100.00;96004.88;7397872;19;20374;-90
2023/07/22 07:31:18;;;;;;;8.47;7.67;;;;;;;12.48;100.00;95939.63;7398542;19;20394;-90
2023/07/22 07:33:45;;;;;;;10.33;7.83;;;;;;;12.61;100.00;95964.91;7396861;19;20382;-90
2023/07/22 07:36:13;;;;;;;8.93;8.03;;;;;;;12.61;100.00;95965.69;7397843;19;20372;-91
2023/07/22 07:38:40;;;;;;;9.90;8.90;;;;;;;13.52;100.00;96124.53;7396866;19;20382;-91
2023/07/22 07:41:08;;;;;;;7.93;7.13;;;;;;;12.97;100.00;96075.97;7396208;19;20396;-91
2023/07/22 07:43:42;;;;;;;11.27;8.10;;;;;;;13.33;100.00;96100.59;7398528;19;20373;-90
2023/07/22 07:46:41;;;;;;;7.80;7.10;;;;;;;12.67;100.00;95980.19;7397854;19;20726;-91
2023/07/22 07:49:09;;;;;;;11.27;7.80;;;;;;;13.18;100.00;96090.78;7397803;19;20999;-91
2023/07/22 07:51:37;;;;;;;9.27;8.37;;;;;;;12.33;100.00;95967.75;7397474;19;20975;-90
2023/07/22 07:54:06;;;;;;;12.27;11.07;;;;;;;13.41;100.00;96128.84;7398388;19;20378;-90
2023/07/22 07:56:36;;;;;;;12.40;10.47;;;;;;;13.31;100.00;96129.41;7397431;19;20461;-90
2023/07/22 07:59:05;;;;;;;9.00;7.27;;;;;;;12.37;100.00;95987.13;7397830;19;20395;-90
2023/07/22 08:01:32;;;;;;;8.67;7.87;;;;;;;12.54;100.00;96033.72;7397437;19;20387;-91
2023/07/22 08:04:00;;;;;;;10.40;9.50;;;;;;;12.12;100.00;95973.31;7399127;19;20391;-90
2023/07/22 08:06:27;;;;;;;9.93;8.07;;;;;;;13.22;100.00;96112.91;7398424;19;20406;-90
2023/07/22 08:08:55;;;;;;;11.00;9.80;;;;;;;12.21;100.00;95989.81;7397601;19;20377;-90
2023/07/22 08:11:22;;;;;;;9.77;8.87;;;;;;;13.95;100.00;96262.78;7398237;19;20382;-91
2023/07/22 08:13:51;;;;;;;10.23;8.87;;;;;;;12.20;100.00;95995.47;7396208;19;20769;-90
2023/07/22 08:16:18;;;;;;;10.13;9.23;;;;;;;13.31;100.00;96170.00;7397239;19;20392;-90
2023/07/22 08:18:47;;;;;;;8.73;7.93;;;;;;;13.82;100.00;96232.91;7397718;19;20376;-91
2023/07/22 08:21:14;;;;;;;14.20;8.20;;;;;;;13.48;100.00;96179.44;7395413;19;20373;-90
2023/07/22 08:23:41;;;;;;;11.23;8.93;;;;;;;13.21;100.00;96119.31;7399240;19;20394;-91
2023/07/22 08:26:08;;;;;;;8.77;7.97;;;;;;;13.19;100.00;96124.97;7414767;19;20416;-90
2023/07/22 08:28:35;;;;;;;13.30;9.13;;;;;;;13.64;100.00;96178.66;7397189;19;20385;-91
2023/07/22 08:31:02;;;;;;;9.67;8.10;;;;;;;13.67;100.00;96176.06;7396235;19;20412;-90
2023/07/22 08:33:30;;;;;;;9.60;8.60;;;;;;;14.55;100.00;96309.19;7396304;19;20389;-91
2023/07/22 08:36:02;;;;;;;8.40;7.60;;;;;;;14.20;100.00;96259.50;7420524;19;20387;-92
2023/07/22 08:38:30;;;;;;;8.77;7.10;;;;;;;13.53;100.00;96147.31;7429420;19;20399;-91
2023/07/22 08:40:57;;;;;;;9.37;7.30;;;;;;;13.76;100.00;96165.22;7405298;19;20433;-90
2023/07/22 08:43:27;;;;;;;8.97;7.80;;;;;;;13.64;100.00;96136.13;7399409;19;20381;-90
2023/07/22 08:45:54;;;;;;;8.80;7.90;;;;;;;13.81;100.00;96165.69;7397058;19;20728;-90
2023/07/22 08:48:26;;;;;;;8.47;7.67;;;;;;;13.81;100.00;96167.59;7396823;19;20372;-90
2023/07/22 08:51:16;;;;;;;8.57;7.67;;;;;;;14.66;100.00;96310.16;7394611;19;20422;-90
2023/07/22 08:53:45;;;;;;;8.13;7.33;;;;;;;14.14;100.00;96223.66;7394004;19;20361;-91
2023/07/22 08:56:26;;;;;;;10.53;6.90;;;;;;;14.43;100.00;96266.78;7395819;19;20404;-90
2023/07/22 08:58:55;;;;;;;7.40;6.70;;;;;;;14.65;100.00;96305.97;7395254;19;20389;-90
2023/07/22 09:01:23;;;;;;;11.87;7.23;;;;;;;14.80;100.00;96317.63;7395031;19;20476;-90
2023/07/22 09:03:52;;;;;;;8.57;7.07;;;;;;;14.69;100.00;96285.53;7396583;19;20393;-90
2023/07/22 09:06:20;;;;;;;7.50;6.67;;;;;;;14.91;100.00;96304.50;7395055;19;20415;-91
2023/07/22 09:08:47;;;;;;;7.63;6.83;;;;;;;14.13;100.00;96184.91;7395125;19;20754;-90
2023/07/22 09:11:15;;;;;;;6.30;5.50;;;;;;;14.52;100.00;96251.38;7394793;19;20366;-90
2023/07/22 09:13:45;;;;;;;10.30;7.00;;;;;;;14.14;100.00;96183.78;7393601;19;20424;-91
2023/07/22 09:16:13;;;;;;;8.90;6.17;;;;;;;14.21;100.00;96212.41;7394356;19;20384;-91
2023/07/22 09:18:40;;;;;;;6.97;6.37;;;;;;;14.30;100.00;96212.19;7395093;19;20702;-91
2023/07/22 09:21:08;;;;;;;11.73;7.40;;;;;;;13.93;100.00;96170.09;7393292;19;20476;-91
2023/07/22 09:23:37;;;;;;;6.07;5.47;;;;;;;13.01;100.00;96010.47;7394331;19;20376;-91
2023/07/22 09:26:15;;;;;;;8.17;6.70;;;;;;;14.00;100.00;96182.75;7394601;19;20384;-90
2023/07/22 09:28:56;;;;;;;7.17;6.47;;;;;;;14.88;100.00;96316.66;7394014;19;20365;-91
2023/07/22 09:31:25;;;;;;;7.50;6.80;;;;;;;14.99;100.00;96314.19;7394726;19;20366;-90
2023/07/22 09:33:54;;;;;;;7.17;6.43;;;;;;;14.10;100.00;96156.38;7399952;19;20710;-91
2023/07/22 09:36:21;;;;;;;7.77;5.40;;;;;;;13.03;100.00;96000.25;7402981;19;20380;-90
2023/07/22 09:39:03;;;;;;;7.60;6.90;;;;;;;13.87;100.00;96105.81;7403544;19;20382;-91
2023/07/22 09:41:31;;;;;;;8.40;5.93;;;;;;;13.53;100.00;96027.78;7402895;19;20365;-90
2023/07/22 09:44:03;;;;;;;9.37;6.50;;;;;;;15.45;100.00;96274.19;7402477;19;20384;-91
2023/07/22 09:46:36;;;;;;;7.57;6.70;;;;;;;13.96;100.00;96012.56;7401956;19;20372;-91
2023/07/22 09:49:05;;;;;;;5.87;5.30;;;;;;;14.10;100.00;96010.13;7403194;19;20341;-91
2023/07/22 09:51:37;;;;;;;7.67;6.37;;;;;;;16.56;100.00;96325.19;7400594;19;20358;-90
2023/07/22 09:54:22;;;;;;;6.20;5.70;;;;;;;16.92;100.00;96336.25;7399258;19;20383;-91
2023/07/22 09:56:50;;;;;;;11.67;6.00;;;;;;;15.80;100.00;96156.63;7403844;19;20843;-91
2023/07/22 09:59:20;;;;;;;14.23;5.70;;;;;;;16.85;100.00;96264.84;7404357;19;20466;-91
2023/07/22 10:01:48;;;;;;;7.53;5.90;;;;;;;15.55;100.00;96076.34;7411676;19;20401;-90
2023/07/22 10:04:16;;;;;;;9.53;5.77;;;;;;;15.08;100.00;96030.53;7411410;19;20893;-90
2023/07/22 10:06:44;;;;;;;6.73;6.13;;;;;;;15.87;100.00;96156.69;7400985;19;20389;-91
2023/07/22 10:09:12;;;;;;;5.20;4.70;;;;;;;16.11;100.00;96211.44;7400316;19;20404;-90
2023/07/22 10:11:39;;;;;;;6.23;5.33;;;;;;;16.36;100.00;96271.19;7400940;19;20377;-90
2023/07/22 10:14:06;;;;;;;7.70;4.53;;;;;;;14.95;100.00;96033.78;7413019;19;20393;-92
2023/07/22 10:16:35;;;;;;;6.47;5.60;;;;;;;15.51;100.00;96120.84;7419056;19;20369;-91
2023/07/22 10:19:04;;;;;;;5.40;4.90;;;;;;;16.31;100.00;96215.50;7409573;19;20474;-90
2023/07/22 10:21:32;;;;;;;6.93;4.93;;;;;;;16.78;100.00;96222.06;7401398;19;20376;-90
2023/07/22 10:24:01;;;;;;;5.50;4.87;;;;;;;16.14;100.00;96198.16;7400460;19;20382;-91
2023/07/22 10:26:28;;;;;;;4.77;4.37;;;;;;;16.60;100.00;96253.91;7400915;19;20377;-91
2023/07/22 10:29:13;;;;;;;6.73;4.93;;;;;;;14.96;100.00;96008.72;7402468;19;20427;-91
2023/07/22 10:31:40;;;;;;;5.67;4.47;;;;;;;16.52;100.00;96182.88;7400793;19;20936;-91
2023/07/22 10:34:07;;;;;;;4.63;4.23;;;;;;;17.05;100.00;96233.34;7429245;19;20405;-91
2023/07/22 10:36:36;;;;;;;4.80;4.30;;;;;;;16.83;100.00;96154.97;7432313;19;20393;-92
2023/07/22 10:39:04;;;;;;;5.17;4.67;;;;;;;17.18;100.00;96129.59;7432612;19;20454;-92
2023/07/22 10:41:33;;;;;;;7.33;4.57;;;;;;;17.51;100.00;96262.31;7403547;19;20349;-91
2023/07/22 10:44:01;;;;;;;4.23;3.83;;;;;;;16.68;100.00;96186.09;7397049;19;20400;-91
2023/07/22 10:46:43;;;;;;;4.80;4.40;;;;;;;17.94;100.00;96301.56;7400809;19;20404;-91
2023/07/22 10:49:16;;;;;;;5.90;5.30;;;;;;;17.48;100.00;96241.66;7400064;19;20402;-91
2023/07/22 10:51:50;;;;;;;5.00;3.70;;;;;;;17.35;100.00;96190.41;7404164;19;20354;-91
2023/07/22 10:54:48;;;;;;;4.70;4.30;;;;;;;17.76;100.00;96255.22;7400371;19;20460;-90
2023/07/22 10:57:15;;;;;;;5.00;3.87;;;;;;;17.73;100.00;96237.25;7399520;19;20466;-90
2023/07/22 10:59:50;;;;;;;4.23;3.80;;;;;;;18.21;100.00;96259.25;7398803;19;20435;-91
2023/07/22 11:02:28;;;;;;;4.70;4.30;;;;;;;17.91;100.00;96253.41;7398934;19;20379;-91
2023/07/22 11:04:59;;;;;;;4.57;4.27;;;;;;;17.30;100.00;96175.50;7398789;19;20401;-91
2023/07/22 11:07:41;;;;;;;4.00;3.70;;;;;;;18.51;100.00;96284.97;7399503;19;20384;-91
2023/07/22 11:10:19;;;;;;;4.70;4.30;;;;;;;18.42;100.00;96252.41;7402365;19;20425;-91
2023/07/22 11:12:47;;;;;;;4.50;3.83;;;;;;;17.62;100.00;96167.63;7399025;19;20397;-91
2023/07/22 11:15:16;;;;;;;5.13;4.47;;;;;;;17.89;100.00;96274.38;7406292;19;20432;-91
2023/07/22 11:18:27;;;;;;;4.00;3.70;;;;;;;18.13;100.00;96273.72;7403085;19;20478;-91
2023/07/22 12:46:26;;;;;;;3.67;3.13;;;;;;;21.54;65.93;96034.66;7406671;19;20411;-90
2023/07/22 12:48:53;;;;;;;4.30;3.27;;;;;;;21.53;67.23;96086.97;7402477;19;20385;-89
2023/07/22 12:51:20;;;;;;;4.43;3.10;;;;;;;20.90;69.29;96097.97;7407392;19;20372;-89
2023/07/22 12:53:47;;;;;;;4.30;3.60;;;;;;;21.22;67.24;96145.28;7411006;19;20384;-90
2023/07/22 12:56:14;;;;;;;4.07;3.23;;;;;;;21.33;68.45;96186.31;7399734;19;20795;-90
2023/07/22 12:58:41;;;;;;;6.67;3.10;;;;;;;20.47;70.22;96154.00;7397237;19;20392;-89
2023/07/22 13:01:08;;;;;;;3.60;3.27;;;;;;;19.51;70.71;96087.38;7404540;19;20439;-90
2023/07/22 13:03:35;;;;;;;3.90;3.07;;;;;;;20.38;68.80;96062.31;7404886;19;20377;-90
2023/07/22 13:06:03;;;;;;;4.20;3.07;;;;;;;20.11;68.33;95954.78;7399317;19;20441;-90
2023/07/22 13:08:30;;;;;;;3.20;2.90;;;;;;;20.88;64.65;95940.97;7399089;19;20390;-90
2023/07/22 13:10:57;;;;;;;3.80;3.10;;;;;;;21.02;64.71;96005.31;7400770;19;20421;-90